CZ-0032 weather

Hospital Heliport
Rakovník, Central Bohemian Region, Czechia

Public forecast

Using degrees Celsius for public forecast. Weather courtesy of forecast.io.

METAR (pilot weather report)

Closest report is Václav Havel Airport Prague, 20.9 nm (38.6 km) E. Retrieved 2019/01/18 22:30 UTC (1 minute ago):

LKPR 182230Z 21003KT 160V230 CAVOK M05/M07 Q1020 NOSIG

TAF (pilot weather forecast)

Forecast is more than 6 hours old.

Closest forecast is Václav Havel Airport Prague, 20.9 nm (38.6 km) E. Retrieved 2019/01/18 12:21 UTC (10 hours ago):

TAF LKPR 181100Z 1812/1918 31012KT 9999 SCT030 BKN045 BECMG 1815/1818 VRB02KT CAVOK BECMG 1910/1912 08005KT